createdAt,value
2018-09-11T00:00:44.068Z,96.37
2018-09-11T00:01:44.047Z,96.27
2018-09-11T00:02:44.028Z,96.18
2018-09-11T00:03:44.004Z,96.18
2018-09-11T00:04:43.982Z,95.89
2018-09-11T00:05:43.961Z,95.70
2018-09-11T00:06:43.942Z,95.79
2018-09-11T00:07:43.917Z,96.27
2018-09-11T00:08:43.893Z,95.61
2018-09-11T00:09:43.873Z,95.89
2018-09-11T00:10:43.850Z,95.79
2018-09-11T00:11:43.829Z,95.98
2018-09-11T00:12:43.807Z,95.98
2018-09-11T00:13:43.785Z,95.31
2018-09-11T00:14:43.764Z,95.31
2018-09-11T00:15:43.741Z,95.36
2018-09-11T00:16:43.719Z,95.07
2018-09-11T00:17:43.698Z,95.27
2018-09-11T00:18:43.676Z,94.98
2018-09-11T00:19:43.655Z,95.07
2018-09-11T00:20:43.632Z,95.17
2018-09-11T00:21:43.610Z,95.46
2018-09-11T00:22:43.589Z,95.07
2018-09-11T00:23:43.567Z,95.36
2018-09-11T00:24:43.543Z,95.36
2018-09-11T00:25:43.521Z,94.98
2018-09-11T00:26:43.500Z,94.70
2018-09-11T00:27:43.480Z,95.36
2018-09-11T00:28:43.457Z,95.46
2018-09-11T00:29:43.434Z,95.65
2018-09-11T00:30:43.412Z,95.46
2018-09-11T00:31:43.390Z,96.03
2018-09-11T00:32:43.373Z,96.13
2018-09-11T00:33:43.348Z,96.42
2018-09-11T00:34:43.325Z,96.32
2018-09-11T00:35:43.304Z,96.42
2018-09-11T00:36:43.280Z,95.75
2018-09-11T00:37:43.264Z,95.94
2018-09-11T00:38:43.237Z,95.46
2018-09-11T00:39:43.217Z,95.84
2018-09-11T00:40:43.194Z,95.36
2018-09-11T00:41:43.170Z,96.42
2018-09-11T00:42:43.150Z,95.94
2018-09-11T00:43:43.132Z,95.84
2018-09-11T00:44:43.106Z,95.65
2018-09-11T00:45:43.084Z,95.84
2018-09-11T00:46:43.062Z,96.13
2018-09-11T00:47:43.040Z,96.13
2018-09-11T00:48:43.018Z,96.03
2018-09-11T00:49:42.997Z,96.13
2018-09-11T00:50:42.973Z,95.07
2018-09-11T00:51:42.954Z,95.12
2018-09-11T00:52:42.929Z,94.84
2018-09-11T00:53:42.908Z,94.93
2018-09-11T00:54:42.886Z,94.65
2018-09-11T00:55:42.863Z,94.84
2018-09-11T00:56:42.842Z,95.03
2018-09-11T00:57:42.821Z,95.22
2018-09-11T00:58:42.802Z,95.89
2018-09-11T00:59:42.775Z,95.89
2018-09-11T01:00:42.753Z,95.98
2018-09-11T01:01:42.732Z,95.70
2018-09-11T01:02:42.710Z,95.79
2018-09-11T01:03:42.690Z,95.89
2018-09-11T01:04:42.666Z,95.89
2018-09-11T01:05:42.647Z,96.37
2018-09-11T01:06:42.621Z,96.47
2018-09-11T01:07:42.600Z,96.27
2018-09-11T01:08:42.576Z,96.66
2018-09-11T01:09:42.560Z,96.56
2018-09-11T01:10:42.534Z,96.37
2018-09-11T01:11:42.513Z,95.98
2018-09-11T01:12:42.490Z,96.66
2018-09-11T01:13:42.471Z,96.47
2018-09-11T01:14:42.448Z,96.56
2018-09-11T01:15:42.424Z,96.75
2018-09-11T01:16:42.401Z,96.56
2018-09-11T01:17:42.380Z,97.23
2018-09-11T01:18:42.357Z,97.23
2018-09-11T01:19:42.337Z,96.94
2018-09-11T01:20:42.314Z,96.66
2018-09-11T01:21:42.293Z,96.56
2018-09-11T01:22:42.271Z,96.56
2018-09-11T01:23:42.249Z,97.04
2018-09-11T01:24:42.227Z,96.84
2018-09-11T01:25:42.204Z,97.23
2018-09-11T01:26:42.183Z,96.84
2018-09-11T01:27:42.160Z,97.13
2018-09-11T01:28:42.137Z,96.56
2018-09-11T01:29:42.118Z,96.75
2018-09-11T01:30:42.093Z,96.84
2018-09-11T01:31:42.074Z,96.84
2018-09-11T01:32:42.049Z,96.94
2018-09-11T01:33:42.029Z,96.47
2018-09-11T01:34:42.008Z,96.75
2018-09-11T01:35:41.987Z,97.13
2018-09-11T01:36:41.962Z,97.33
2018-09-11T01:37:41.942Z,97.80
2018-09-11T01:38:41.919Z,97.52
2018-09-11T01:39:41.899Z,97.33
2018-09-11T01:40:41.874Z,97.13
2018-09-11T01:41:41.853Z,97.61
2018-09-11T01:42:41.836Z,98.00
2018-09-11T01:43:41.810Z,97.33
2018-09-11T01:44:41.788Z,97.52
2018-09-11T01:45:41.765Z,96.75
2018-09-11T01:46:41.745Z,96.47
2018-09-11T01:47:41.722Z,95.70
2018-09-11T01:48:41.700Z,96.18
2018-09-11T01:49:41.677Z,96.22
2018-09-11T01:50:41.658Z,95.70
2018-09-11T01:51:41.634Z,96.03
2018-09-11T01:52:41.612Z,95.70
2018-09-11T01:53:41.590Z,96.27
2018-09-11T01:54:41.575Z,95.17
2018-09-11T01:55:41.546Z,95.56
2018-09-11T01:56:41.524Z,95.46
2018-09-11T01:57:41.501Z,95.65
2018-09-11T01:58:41.482Z,96.22
2018-09-11T01:59:41.462Z,95.65
2018-09-11T02:00:41.435Z,96.89
2018-09-11T02:01:41.414Z,96.42
2018-09-11T02:02:41.392Z,97.56
2018-09-11T02:03:41.371Z,97.47
2018-09-11T02:04:41.348Z,98.00
2018-09-11T02:05:41.326Z,98.05
2018-09-11T02:06:41.304Z,99.00
2018-09-11T02:07:41.283Z,99.72
2018-09-11T02:08:41.263Z,99.15
2018-09-11T02:09:41.238Z,99.72
2018-09-11T02:10:41.215Z,99.99
2018-09-11T02:11:41.205Z,99.99
2018-09-11T02:12:41.173Z,99.99
2018-09-11T02:13:41.150Z,99.99
2018-09-11T02:14:41.128Z,99.99
2018-09-11T02:15:41.105Z,99.99
2018-09-11T02:16:41.081Z,99.99
2018-09-11T02:17:41.059Z,99.99
2018-09-11T02:18:41.037Z,99.99
2018-09-11T02:19:41.015Z,99.99
2018-09-11T02:20:40.995Z,99.99
2018-09-11T02:21:40.971Z,99.99
2018-09-11T02:22:40.950Z,99.99
2018-09-11T02:23:40.926Z,99.99
2018-09-11T02:24:40.904Z,99.99
2018-09-11T02:25:40.882Z,99.99
2018-09-11T02:26:40.859Z,99.99
2018-09-11T02:27:40.838Z,99.99
2018-09-11T02:28:40.815Z,99.99
2018-09-11T02:29:40.792Z,99.99
2018-09-11T02:30:40.771Z,99.99
2018-09-11T02:31:40.748Z,99.99
2018-09-11T02:32:40.725Z,99.99
2018-09-11T02:33:40.701Z,99.99
2018-09-11T02:34:40.681Z,99.99
2018-09-11T02:35:40.721Z,99.99
2018-09-11T02:36:40.640Z,99.99
2018-09-11T02:37:40.612Z,99.99
2018-09-11T02:38:40.592Z,99.99
2018-09-11T02:39:40.567Z,99.99
2018-09-11T02:40:40.545Z,99.99
2018-09-11T02:41:40.524Z,99.99
2018-09-11T02:42:40.501Z,99.99
2018-09-11T02:43:40.477Z,99.99
2018-09-11T02:44:40.455Z,99.99
2018-09-11T02:45:40.433Z,99.99
2018-09-11T02:46:40.410Z,99.99
2018-09-11T02:47:40.390Z,99.99
2018-09-11T02:48:40.365Z,99.99
2018-09-11T02:49:40.342Z,99.99
2018-09-11T02:50:40.321Z,99.99
2018-09-11T02:51:40.304Z,99.99
2018-09-11T02:52:40.278Z,99.99
2018-09-11T02:53:40.251Z,99.99
2018-09-11T02:54:40.231Z,99.99
2018-09-11T02:55:40.206Z,99.99
2018-09-11T02:56:40.186Z,99.99
2018-09-11T02:57:40.162Z,99.99
2018-09-11T02:58:40.141Z,99.99
2018-09-11T02:59:40.120Z,99.99
2018-09-11T03:00:40.095Z,99.99
2018-09-11T03:01:40.072Z,99.99
2018-09-11T03:02:40.050Z,99.99
2018-09-11T03:03:40.027Z,99.99
2018-09-11T03:04:40.004Z,99.99
2018-09-11T03:05:39.981Z,99.99
2018-09-11T03:06:39.960Z,99.99
2018-09-11T03:07:39.938Z,99.99
2018-09-11T03:08:39.915Z,99.99
2018-09-11T03:09:39.892Z,99.99
2018-09-11T03:10:39.869Z,99.99
2018-09-11T03:11:39.847Z,99.99
2018-09-11T03:12:39.824Z,99.99
2018-09-11T03:13:39.801Z,99.99
2018-09-11T03:14:39.780Z,99.99
2018-09-11T03:15:39.757Z,99.99
2018-09-11T03:16:39.738Z,99.99
2018-09-11T03:17:39.712Z,99.99
2018-09-11T03:18:39.736Z,99.99
2018-09-11T03:19:39.668Z,99.99
2018-09-11T03:20:39.644Z,99.99
2018-09-11T03:21:39.622Z,99.99
2018-09-11T03:22:39.600Z,99.99
2018-09-11T03:23:39.581Z,99.99
2018-09-11T03:24:39.553Z,99.99
2018-09-11T03:25:39.533Z,99.99
2018-09-11T03:26:39.510Z,99.99
2018-09-11T03:27:39.490Z,99.99
2018-09-11T03:28:39.463Z,99.99
2018-09-11T03:29:39.440Z,99.99
2018-09-11T03:30:39.419Z,99.99
2018-09-11T03:31:39.397Z,99.99
2018-09-11T03:32:39.373Z,99.99
2018-09-11T03:33:39.352Z,99.99
2018-09-11T03:34:39.329Z,99.99
2018-09-11T03:35:39.307Z,99.99
2018-09-11T03:36:39.285Z,99.99
2018-09-11T03:37:39.263Z,99.99
2018-09-11T03:38:39.241Z,99.99
2018-09-11T03:39:39.219Z,99.99
2018-09-11T03:40:39.194Z,99.99
2018-09-11T03:41:39.173Z,99.99
2018-09-11T03:42:39.149Z,99.99
2018-09-11T03:43:39.129Z,99.99
2018-09-11T03:44:39.106Z,99.99
2018-09-11T03:45:39.084Z,99.99
2018-09-11T03:46:39.063Z,99.99
2018-09-11T03:47:39.039Z,99.99
2018-09-11T03:48:39.015Z,99.99
2018-09-11T03:49:38.992Z,99.99
2018-09-11T03:50:38.970Z,99.99
2018-09-11T03:51:38.949Z,99.99
2018-09-11T03:52:38.925Z,99.99
2018-09-11T03:53:38.904Z,99.99
2018-09-11T03:54:38.881Z,99.99
2018-09-11T03:55:38.858Z,99.99
2018-09-11T03:56:38.838Z,99.99
2018-09-11T03:57:38.813Z,99.99
2018-09-11T03:58:38.790Z,99.99
2018-09-11T03:59:38.769Z,99.99
2018-09-11T04:00:38.746Z,99.99
2018-09-11T04:01:38.724Z,99.99
2018-09-11T04:02:38.702Z,99.99
2018-09-11T04:03:38.679Z,99.99
2018-09-11T04:04:38.656Z,99.99
2018-09-11T04:05:38.704Z,99.99
2018-09-11T04:06:38.611Z,99.99
2018-09-11T04:07:38.589Z,99.99
2018-09-11T04:08:38.565Z,99.99
2018-09-11T04:09:38.542Z,99.99
2018-09-11T04:10:38.521Z,99.99
2018-09-11T04:11:38.499Z,99.99
2018-09-11T04:12:38.477Z,99.99
2018-09-11T04:13:38.452Z,99.99
2018-09-11T04:14:38.432Z,99.99
2018-09-11T04:15:38.409Z,99.99
2018-09-11T04:16:38.386Z,99.99
2018-09-11T04:17:38.370Z,99.99
2018-09-11T04:18:38.343Z,99.99
2018-09-11T04:19:38.319Z,99.99
2018-09-11T04:20:38.296Z,99.99
2018-09-11T04:21:38.274Z,99.99
2018-09-11T04:22:38.251Z,99.99
2018-09-11T04:23:38.231Z,99.99
2018-09-11T04:24:38.205Z,99.99
2018-09-11T04:25:38.252Z,99.99
2018-09-11T04:26:38.161Z,99.99
2018-09-11T04:27:38.138Z,99.99
2018-09-11T04:28:38.113Z,99.99
2018-09-11T04:29:38.091Z,99.99
2018-09-11T04:30:38.069Z,99.99
2018-09-11T04:31:38.050Z,99.99
2018-09-11T04:32:38.025Z,99.99
2018-09-11T04:33:38.001Z,99.99
2018-09-11T04:34:37.979Z,99.99
2018-09-11T04:35:37.956Z,99.99
2018-09-11T04:36:37.932Z,99.99
2018-09-11T04:37:37.911Z,99.99
2018-09-11T04:38:37.887Z,99.99
2018-09-11T04:39:37.868Z,99.99
2018-09-11T04:40:37.846Z,99.99
2018-09-11T04:41:37.818Z,99.99
2018-09-11T04:42:37.797Z,99.99
2018-09-11T04:43:37.774Z,99.99
2018-09-11T04:44:37.751Z,99.99
2018-09-11T04:45:37.729Z,99.99
2018-09-11T04:46:37.705Z,99.99
2018-09-11T04:47:37.684Z,99.99
2018-09-11T04:48:37.660Z,99.99
2018-09-11T04:49:37.637Z,99.99
2018-09-11T04:50:37.615Z,99.99
2018-09-11T04:51:37.593Z,99.99
2018-09-11T04:52:37.568Z,99.99
2018-09-11T04:53:37.556Z,99.99
2018-09-11T04:54:37.589Z,99.99
2018-09-11T04:55:37.502Z,99.99
2018-09-11T04:56:37.479Z,99.99
2018-09-11T04:57:37.459Z,99.99
2018-09-11T04:58:37.434Z,99.99
2018-09-11T04:59:37.413Z,99.99
2018-09-11T05:00:37.387Z,99.99
2018-09-11T05:01:37.369Z,99.99
2018-09-11T05:02:37.343Z,99.99
2018-09-11T05:03:37.322Z,99.99
2018-09-11T05:04:37.298Z,99.99
2018-09-11T05:05:37.274Z,99.99
2018-09-11T05:06:37.251Z,99.99
2018-09-11T05:07:37.229Z,99.99
2018-09-11T05:08:37.206Z,99.99
2018-09-11T05:09:37.188Z,99.99
2018-09-11T05:10:37.163Z,99.99
2018-09-11T05:11:37.139Z,99.99
2018-09-11T05:12:37.118Z,99.99
2018-09-11T05:13:37.093Z,99.99
2018-09-11T05:14:37.073Z,99.99
2018-09-11T05:15:37.048Z,99.99
2018-09-11T05:16:37.025Z,99.99
2018-09-11T05:17:37.004Z,99.99
2018-09-11T05:18:36.982Z,99.99
2018-09-11T05:19:36.975Z,99.99
2018-09-11T05:20:36.935Z,99.99
2018-09-11T05:21:36.914Z,99.99
2018-09-11T05:22:36.891Z,99.99
2018-09-11T05:23:36.870Z,99.99
2018-09-11T05:24:36.848Z,99.99
2018-09-11T05:25:36.822Z,99.99
2018-09-11T05:26:36.802Z,99.99
2018-09-11T05:27:36.835Z,99.99
2018-09-11T05:28:36.755Z,99.99
2018-09-11T05:29:36.735Z,99.99
2018-09-11T05:30:36.710Z,99.99
2018-09-11T05:31:36.689Z,99.99
2018-09-11T05:32:36.665Z,99.99
2018-09-11T05:33:36.643Z,99.99
2018-09-11T05:34:36.622Z,99.99
2018-09-11T05:35:36.599Z,99.99
2018-09-11T05:36:36.576Z,99.99
2018-09-11T05:37:36.555Z,99.99
2018-09-11T05:38:36.532Z,99.99
2018-09-11T05:39:36.511Z,99.99
2018-09-11T05:40:36.486Z,99.99
2018-09-11T05:41:36.463Z,99.99
2018-09-11T05:42:36.442Z,99.99
2018-09-11T05:43:36.420Z,99.99
2018-09-11T05:44:36.397Z,99.99
2018-09-11T05:45:36.375Z,99.99
2018-09-11T05:46:36.355Z,99.99
2018-09-11T05:47:36.332Z,99.99
2018-09-11T05:48:36.308Z,99.99
2018-09-11T05:49:36.286Z,99.99
2018-09-11T05:50:36.263Z,99.99
2018-09-11T05:51:36.242Z,99.99
2018-09-11T05:52:36.219Z,99.99
2018-09-11T05:53:36.197Z,99.99
2018-09-11T05:54:36.174Z,99.99
2018-09-11T05:55:36.154Z,99.99
2018-09-11T05:56:36.138Z,99.99
2018-09-11T05:57:36.114Z,99.99
2018-09-11T05:58:36.088Z,99.99
2018-09-11T05:59:36.066Z,99.99
2018-09-11T06:00:36.042Z,99.99
2018-09-11T06:01:36.021Z,99.99
2018-09-11T06:02:35.998Z,99.99
2018-09-11T06:03:35.975Z,99.99
2018-09-11T06:04:35.952Z,99.99
2018-09-11T06:05:35.962Z,99.99
2018-09-11T06:06:35.909Z,99.99
2018-09-11T06:07:35.888Z,99.99
2018-09-11T06:08:35.864Z,99.99
2018-09-11T06:09:35.841Z,99.99
2018-09-11T06:10:35.821Z,99.99
2018-09-11T06:11:35.798Z,99.99
2018-09-11T06:12:35.775Z,99.99
2018-09-11T06:13:35.754Z,99.99
2018-09-11T06:14:35.732Z,99.99
2018-09-11T06:15:35.750Z,99.99
2018-09-11T06:16:35.687Z,99.99
2018-09-11T06:17:35.668Z,99.63
2018-09-11T06:18:35.644Z,99.99
2018-09-11T06:19:35.622Z,99.91
2018-09-11T06:20:35.599Z,99.19
2018-09-11T06:21:35.576Z,98.52
2018-09-11T06:22:35.555Z,98.14
2018-09-11T06:23:35.532Z,97.95
2018-09-11T06:24:35.510Z,97.95
2018-09-11T06:25:35.531Z,97.81
2018-09-11T06:26:35.466Z,97.23
2018-09-11T06:27:35.444Z,96.75
2018-09-11T06:28:35.423Z,96.47
2018-09-11T06:29:35.399Z,95.31
2018-09-11T06:30:35.378Z,95.46
2018-09-11T06:31:35.358Z,94.69
2018-09-11T06:32:35.340Z,93.15
2018-09-11T06:33:35.314Z,94.21
2018-09-11T06:34:35.293Z,93.06
2018-09-11T06:35:35.349Z,93.35
2018-09-11T06:36:35.248Z,93.15
2018-09-11T06:37:35.226Z,92.05
2018-09-11T06:38:35.206Z,91.57
2018-09-11T06:39:35.185Z,90.80
2018-09-11T06:40:35.163Z,90.37
2018-09-11T06:41:35.140Z,88.93
2018-09-11T06:42:35.123Z,88.25
2018-09-11T06:43:35.099Z,88.45
2018-09-11T06:44:35.090Z,88.83
2018-09-11T06:45:35.057Z,88.93
2018-09-11T06:46:35.035Z,88.16
2018-09-11T06:47:35.016Z,87.34
2018-09-11T06:48:34.993Z,87.05
2018-09-11T06:49:34.973Z,84.84
2018-09-11T06:50:34.951Z,84.98
2018-09-11T06:51:34.940Z,84.73
2018-09-11T06:52:34.910Z,81.35
2018-09-11T06:53:34.889Z,80.10
2018-09-11T06:54:34.928Z,76.96
2018-09-11T06:55:34.850Z,76.38
2018-09-11T06:56:34.829Z,76.61
2018-09-11T06:57:34.813Z,75.30
2018-09-11T06:58:34.792Z,75.34
2018-09-11T06:59:34.770Z,73.37
2018-09-11T07:00:34.755Z,73.18
2018-09-11T07:01:34.731Z,73.82
2018-09-11T07:02:34.714Z,76.42
2018-09-11T07:03:34.696Z,75.16
2018-09-11T07:04:34.675Z,75.90
2018-09-11T07:05:34.656Z,75.80
2018-09-11T07:06:34.637Z,74.68
2018-09-11T07:07:34.620Z,75.01
2018-09-11T07:08:34.632Z,73.11
2018-09-11T07:09:34.583Z,72.69
2018-09-11T07:10:34.564Z,73.53
2018-09-11T07:11:34.547Z,75.03
2018-09-11T07:12:34.529Z,75.26
2018-09-11T07:13:34.509Z,73.57
2018-09-11T07:14:34.520Z,73.43
2018-09-11T07:15:34.474Z,75.90
2018-09-11T07:16:34.456Z,76.82
2018-09-11T07:17:34.438Z,77.01
2018-09-11T07:18:34.421Z,77.44
2018-09-11T07:19:34.428Z,76.67
2018-09-11T07:20:34.384Z,75.23
2018-09-11T07:21:34.365Z,75.80
2018-09-11T07:22:34.349Z,76.48
2018-09-11T07:23:34.329Z,75.90
2018-09-11T07:24:34.312Z,75.90
2018-09-11T07:25:34.294Z,75.28
2018-09-11T07:26:34.277Z,75.42
2018-09-11T07:27:34.258Z,75.16
2018-09-11T07:28:34.237Z,73.47
2018-09-11T07:29:34.220Z,72.25
2018-09-11T07:30:34.204Z,69.97
2018-09-11T07:31:34.187Z,68.62
2018-09-11T07:32:34.191Z,67.49
2018-09-11T07:33:34.148Z,66.27
2018-09-11T07:34:34.130Z,67.01
2018-09-11T07:35:34.115Z,67.71
2018-09-11T07:36:34.095Z,69.80
2018-09-11T07:37:34.081Z,70.92
2018-09-11T07:38:34.060Z,73.65
2018-09-11T07:39:34.045Z,74.80
2018-09-11T07:40:34.025Z,75.05
2018-09-11T07:41:34.007Z,74.80
2018-09-11T07:42:33.988Z,75.34
2018-09-11T07:43:33.969Z,76.21
2018-09-11T07:44:33.952Z,75.44
2018-09-11T07:45:33.969Z,75.63
2018-09-11T07:46:33.916Z,76.40
2018-09-11T07:47:33.897Z,75.92
2018-09-11T07:48:33.880Z,74.71
2018-09-11T07:49:33.859Z,74.61
2018-09-11T07:50:33.840Z,73.58
2018-09-11T07:51:33.822Z,73.65
2018-09-11T07:52:33.906Z,74.13
2018-09-11T07:53:33.784Z,75.24
2018-09-11T07:54:33.766Z,76.11
2018-09-11T07:55:33.747Z,75.63
2018-09-11T07:56:33.728Z,76.21
2018-09-11T07:57:33.774Z,76.11
2018-09-11T07:58:33.691Z,76.78
2018-09-11T07:59:33.670Z,76.25
2018-09-11T08:00:33.650Z,75.28
2018-09-11T08:01:33.631Z,74.13
2018-09-11T08:02:33.613Z,74.51
2018-09-11T08:03:33.594Z,74.03
2018-09-11T08:04:33.575Z,73.55
2018-09-11T08:05:33.556Z,74.22
2018-09-11T08:06:33.537Z,73.94
2018-09-11T08:07:33.518Z,73.74
2018-09-11T08:08:33.499Z,72.88
2018-09-11T08:09:33.538Z,73.55
2018-09-11T08:10:33.460Z,73.55
2018-09-11T08:11:33.442Z,73.55
2018-09-11T08:12:33.422Z,74.19
2018-09-11T08:13:33.402Z,75.54
2018-09-11T08:14:33.383Z,75.15
2018-09-11T08:15:33.365Z,76.01
2018-09-11T08:16:33.522Z,75.15
2018-09-11T08:17:33.325Z,75.19
2018-09-11T08:18:33.307Z,74.13
2018-09-11T08:19:33.287Z,74.03
2018-09-11T08:20:33.267Z,73.55
2018-09-11T08:21:33.249Z,72.63
2018-09-11T08:22:33.230Z,71.66
2018-09-11T08:23:33.210Z,71.70
2018-09-11T08:24:33.191Z,71.50
2018-09-11T08:25:33.170Z,69.87
2018-09-11T08:26:33.154Z,68.93
2018-09-11T08:27:33.134Z,68.29
2018-09-11T08:28:33.114Z,67.46
2018-09-11T08:29:33.099Z,64.66
2018-09-11T08:30:33.077Z,63.31
2018-09-11T08:31:33.061Z,63.56
2018-09-11T08:32:33.049Z,64.76
2018-09-11T08:33:33.029Z,65.91
2018-09-11T08:34:33.006Z,66.36
2018-09-11T08:35:32.987Z,66.85
2018-09-11T08:36:32.972Z,67.33
2018-09-11T08:37:32.953Z,67.33
2018-09-11T08:38:32.935Z,66.17
2018-09-11T08:39:32.917Z,67.43
2018-09-11T08:40:32.898Z,67.68
2018-09-11T08:41:32.880Z,68.10
2018-09-11T08:42:32.863Z,67.68
2018-09-11T08:43:32.846Z,68.45
2018-09-11T08:44:32.828Z,68.84
2018-09-11T08:45:32.808Z,69.29
2018-09-11T08:46:32.812Z,69.57
2018-09-11T08:47:32.773Z,69.67
2018-09-11T08:48:32.755Z,69.96
2018-09-11T08:49:32.738Z,68.55
2018-09-11T08:50:32.719Z,68.26
2018-09-11T08:51:32.702Z,69.03
2018-09-11T08:52:32.755Z,68.19
2018-09-11T08:53:32.664Z,66.40
2018-09-11T08:54:32.645Z,64.79
2018-09-11T08:55:32.628Z,63.21
2018-09-11T08:56:32.608Z,62.37
2018-09-11T08:57:32.591Z,61.08
2018-09-11T08:58:32.581Z,60.72
2018-09-11T08:59:32.557Z,61.18
2018-09-11T09:00:32.538Z,61.08
2018-09-11T09:01:32.521Z,61.37
2018-09-11T09:02:32.505Z,61.18
2018-09-11T09:03:32.514Z,60.41
2018-09-11T09:04:32.470Z,60.99
2018-09-11T09:05:32.452Z,61.43
2018-09-11T09:06:32.437Z,59.40
2018-09-11T09:07:32.420Z,58.65
2018-09-11T09:08:32.402Z,58.27
2018-09-11T09:09:32.387Z,57.76
2018-09-11T09:10:32.369Z,58.01
2018-09-11T09:11:32.353Z,56.16
2018-09-11T09:12:32.337Z,56.26
2018-09-11T09:13:32.320Z,56.16
2018-09-11T09:14:32.304Z,56.49
2018-09-11T09:15:32.315Z,55.08
2018-09-11T09:16:32.272Z,53.97
2018-09-11T09:17:32.255Z,52.78
2018-09-11T09:18:32.241Z,54.74
2018-09-11T09:19:32.227Z,56.82
2018-09-11T09:20:32.211Z,57.28
2018-09-11T09:21:32.198Z,58.34
2018-09-11T09:22:32.185Z,58.14
2018-09-11T09:23:32.164Z,57.40
2018-09-11T09:24:32.148Z,56.82
2018-09-11T09:25:32.132Z,56.62
2018-09-11T09:26:32.125Z,56.77
2018-09-11T09:27:32.144Z,55.32
2018-09-11T09:28:32.088Z,54.77
2018-09-11T09:29:32.072Z,53.77
2018-09-11T09:30:32.055Z,55.85
2018-09-11T09:31:32.042Z,55.78
2018-09-11T09:32:32.025Z,55.07
2018-09-11T09:33:32.013Z,55.00
2018-09-11T09:34:31.994Z,54.81
2018-09-11T09:35:31.980Z,54.38
2018-09-11T09:36:32.028Z,53.61
2018-09-11T09:37:31.953Z,53.77
2018-09-11T09:38:31.934Z,54.35
2018-09-11T09:39:31.920Z,55.17
2018-09-11T09:40:31.904Z,54.71
2018-09-11T09:41:31.888Z,55.49
2018-09-11T09:42:31.874Z,55.94
2018-09-11T09:43:31.859Z,56.79
2018-09-11T09:44:31.844Z,57.31
2018-09-11T09:45:31.829Z,58.12
2018-09-11T09:46:31.812Z,57.82
2018-09-11T09:47:31.796Z,57.37
2018-09-11T09:48:31.780Z,55.56
2018-09-11T09:49:31.764Z,55.73
2018-09-11T09:50:31.752Z,56.60
2018-09-11T09:51:31.738Z,57.99
2018-09-11T09:52:31.716Z,58.98
2018-09-11T09:53:31.701Z,57.54
2018-09-11T09:54:31.686Z,56.70
2018-09-11T09:55:31.671Z,56.07
2018-09-11T09:56:31.705Z,52.61
2018-09-11T09:57:31.636Z,52.44
2018-09-11T09:58:31.635Z,52.71
2018-09-11T09:59:31.605Z,52.83
2018-09-11T10:00:31.589Z,51.96
2018-09-11T10:01:31.573Z,51.04
2018-09-11T10:02:31.559Z,50.53
2018-09-11T10:03:31.544Z,50.79
2018-09-11T10:04:31.527Z,51.57
2018-09-11T10:05:31.511Z,51.23
2018-09-11T10:06:31.499Z,50.29
2018-09-11T10:07:31.480Z,47.57
2018-09-11T10:08:31.465Z,47.57
2018-09-11T10:09:31.451Z,47.03
2018-09-11T10:10:31.436Z,46.15
2018-09-11T10:11:31.422Z,45.45
2018-09-11T10:12:31.405Z,46.77
2018-09-11T10:13:31.391Z,48.71
2018-09-11T10:14:31.382Z,48.42
2018-09-11T10:15:31.361Z,48.95
2018-09-11T10:16:31.346Z,49.63
2018-09-11T10:17:31.389Z,48.80
2018-09-11T10:18:31.317Z,48.61
2018-09-11T10:19:31.303Z,47.66
2018-09-11T10:20:31.287Z,46.19
2018-09-11T10:21:31.271Z,47.74
2018-09-11T10:22:31.257Z,47.64
2018-09-11T10:23:31.243Z,47.08
2018-09-11T10:24:31.227Z,46.98
2018-09-11T10:25:31.214Z,47.57
2018-09-11T10:26:31.198Z,48.10
2018-09-11T10:27:31.231Z,48.69
2018-09-11T10:28:31.168Z,48.49
2018-09-11T10:29:31.154Z,48.76
2018-09-11T10:30:31.139Z,49.44
2018-09-11T10:31:31.128Z,49.24
2018-09-11T10:32:31.112Z,48.69
2018-09-11T10:33:31.096Z,48.71
2018-09-11T10:34:31.079Z,47.45
2018-09-11T10:35:31.067Z,48.88
2018-09-11T10:36:31.051Z,48.78
2018-09-11T10:37:31.036Z,48.44
2018-09-11T10:38:31.021Z,46.21
2018-09-11T10:39:31.064Z,45.45
2018-09-11T10:40:30.993Z,46.14
2018-09-11T10:41:30.978Z,44.87
2018-09-11T10:42:30.963Z,45.43
2018-09-11T10:43:30.948Z,46.16
2018-09-11T10:44:30.934Z,47.02
2018-09-11T10:45:30.921Z,47.52
2018-09-11T10:46:30.905Z,47.86
2018-09-11T10:47:30.891Z,47.94
2018-09-11T10:48:30.876Z,48.25
2018-09-11T10:49:30.862Z,47.50
2018-09-11T10:50:30.846Z,46.53
2018-09-11T10:51:30.829Z,46.43
2018-09-11T10:52:30.814Z,46.82
2018-09-11T10:53:30.800Z,48.15
2018-09-11T10:54:30.786Z,49.65
2018-09-11T10:55:30.775Z,50.43
2018-09-11T10:56:30.755Z,52.14
2018-09-11T10:57:30.739Z,52.24
2018-09-11T10:58:30.724Z,52.85
2018-09-11T10:59:30.708Z,52.34
2018-09-11T11:00:30.827Z,52.22
2018-09-11T11:01:30.677Z,53.69
2018-09-11T11:02:30.662Z,53.47
2018-09-11T11:03:30.645Z,53.19
2018-09-11T11:04:30.628Z,52.44
2018-09-11T11:05:30.611Z,51.23
2018-09-11T11:06:30.596Z,50.38
2018-09-11T11:07:30.580Z,48.47
2018-09-11T11:08:30.563Z,47.76
2018-09-11T11:09:30.548Z,45.07
2018-09-11T11:10:30.534Z,43.09
2018-09-11T11:11:30.521Z,40.68
2018-09-11T11:12:30.499Z,40.01
2018-09-11T11:13:30.534Z,40.31
2018-09-11T11:14:30.471Z,40.58
2018-09-11T11:15:30.455Z,41.44
2018-09-11T11:16:30.441Z,40.50
2018-09-11T11:17:30.436Z,39.90
2018-09-11T11:18:30.410Z,40.48
2018-09-11T11:19:30.398Z,41.32
2018-09-11T11:20:30.380Z,40.88
2018-09-11T11:21:30.364Z,40.29
2018-09-11T11:22:30.352Z,40.09
2018-09-11T11:23:30.338Z,40.66
2018-09-11T11:24:30.322Z,41.53
2018-09-11T11:25:30.307Z,40.60
2018-09-11T11:26:30.293Z,39.72
2018-09-11T11:27:30.281Z,40.70
2018-09-11T11:28:30.278Z,39.62
2018-09-11T11:29:30.251Z,39.88
2018-09-11T11:30:30.236Z,40.66
2018-09-11T11:31:30.222Z,41.42
2018-09-11T11:32:30.207Z,41.86
2018-09-11T11:33:30.195Z,42.54
2018-09-11T11:34:30.182Z,42.64
2018-09-11T11:35:30.165Z,43.02
2018-09-11T11:36:30.245Z,42.36
2018-09-11T11:37:30.212Z,42.21
2018-09-11T11:38:30.122Z,40.00
2018-09-11T11:39:30.107Z,38.96
2018-09-11T11:40:30.095Z,37.04
2018-09-11T11:41:30.082Z,37.75
2018-09-11T11:42:30.063Z,36.41
2018-09-11T11:43:30.049Z,36.31
2018-09-11T11:44:30.035Z,36.49
2018-09-11T11:45:30.020Z,36.39
2018-09-11T11:46:30.006Z,36.31
2018-09-11T11:47:29.993Z,35.74
2018-09-11T11:48:29.980Z,34.60
2018-09-11T11:49:29.964Z,34.36
2018-09-11T11:50:29.951Z,34.57
2018-09-11T11:51:29.937Z,34.55
2018-09-11T11:52:29.923Z,35.74
2018-09-11T11:53:29.909Z,35.94
2018-09-11T11:54:29.896Z,34.86
2018-09-11T11:55:29.904Z,34.47
2018-09-11T11:56:29.868Z,34.55
2018-09-11T11:57:29.855Z,35.47
2018-09-11T11:58:29.844Z,36.72
2018-09-11T11:59:29.829Z,37.48
2018-09-11T12:00:29.814Z,37.91
2018-09-11T12:01:29.849Z,36.65
2018-09-11T12:02:29.789Z,37.02
2018-09-11T12:03:29.775Z,37.60
2018-09-11T12:04:29.761Z,37.43
2018-09-11T12:05:29.748Z,36.63
2018-09-11T12:06:29.732Z,36.65
2018-09-11T12:07:29.722Z,37.35
2018-09-11T12:08:29.706Z,35.90
2018-09-11T12:09:29.693Z,35.06
2018-09-11T12:10:29.678Z,34.55
2018-09-11T12:11:29.665Z,36.14
2018-09-11T12:12:29.651Z,36.82
2018-09-11T12:13:29.636Z,37.64
2018-09-11T12:14:29.623Z,39.08
2018-09-11T12:15:29.609Z,39.86
2018-09-11T12:16:29.595Z,39.03
2018-09-11T12:17:29.630Z,37.97
2018-09-11T12:18:29.569Z,37.39
2018-09-11T12:19:29.556Z,36.72
2018-09-11T12:20:29.537Z,37.39
2018-09-11T12:21:29.524Z,37.41
2018-09-11T12:22:29.509Z,37.56
2018-09-11T12:23:29.496Z,36.90
2018-09-11T12:24:29.481Z,36.74
2018-09-11T12:25:29.522Z,36.45
2018-09-11T12:26:29.453Z,36.06
2018-09-11T12:27:29.439Z,36.16
2018-09-11T12:28:29.424Z,36.06
2018-09-11T12:29:29.411Z,36.24
2018-09-11T12:30:29.396Z,36.16
2018-09-11T12:31:29.383Z,36.90
2018-09-11T12:32:29.367Z,38.18
2018-09-11T12:33:29.354Z,37.15
2018-09-11T12:34:29.340Z,35.14
2018-09-11T12:35:29.326Z,34.67
2018-09-11T12:36:29.312Z,34.29
2018-09-11T12:37:29.301Z,33.33
2018-09-11T12:38:29.288Z,32.71
2018-09-11T12:39:29.271Z,33.67
2018-09-11T12:40:29.257Z,34.45
2018-09-11T12:41:29.245Z,34.63
2018-09-11T12:42:29.231Z,35.25
2018-09-11T12:43:29.219Z,34.55
2018-09-11T12:44:29.205Z,34.61
2018-09-11T12:45:29.191Z,35.90
2018-09-11T12:46:29.395Z,34.83
2018-09-11T12:47:29.398Z,34.75
2018-09-11T12:48:29.320Z,34.08
2018-09-11T12:49:29.136Z,34.57
2018-09-11T12:50:29.120Z,34.45
2018-09-11T12:51:29.108Z,34.28
2018-09-11T12:52:29.130Z,34.63